Delta Ruler — WDF8818 — position and weather

sailwx.info

Track history (hours):
 
Tides and Currents Weather Stations Pressure Air Temp Water Temp Dewpoint Dewpoint Depression Visibility Wind Speed Wind Dir Waves Ship Positions

Delta Ruler

Owner: Crosby Marine Transportation, Golden Meadow, LA. More information available from US FCC via Universal Licensing System and Coast Guard Vessel Documentation Center.

Last reported at 2018-May-24 17:17 UTC. Time now 2018-May-25 22:37 UTC.
Position N 29°50' W 090°14'.

Length 22 m; draft 2.5 m.

Type: Tug. MMSI: 367498910.

Date/timePositionNaut miles runAvg speedWind from/ knotsBaromVisibWave heightAir tempDewpointWater temp
2018-May-24 17:17N 29°50' W 090°14'  
2018-May-21 18:26N 29°37' W 090°21'  
2018-May-19 01:02N 29°34' W 090°32'1 6.0
2018-May-19 00:50N 29°34' W 090°33'2 6.0
2018-May-19 00:30N 29°35' W 090°35'2 4.2
2018-May-19 00:00N 29°35' W 090°38'2 4.1
2018-May-18 23:28N 29°36' W 090°40'0 0.1
2018-May-18 23:00N 29°36' W 090°40'0 0.0
2018-May-18 22:30N 29°36' W 090°40'1 2.8
2018-May-18 22:00N 29°36' W 090°41'2 4.3
2018-May-18 21:30N 29°35' W 090°43'2 4.6
2018-May-18 21:00N 29°33' W 090°42'1 2.7
2018-May-18 20:30N 29°34' W 090°43'3 5.4
2018-May-18 20:00N 29°37' W 090°42'2 3.9
2018-May-18 19:30N 29°36' W 090°40'0 0.0
2018-May-18 19:00N 29°36' W 090°40'0 0.0
2018-May-18 18:30N 29°36' W 090°40'0 0.0
2018-May-18 18:00N 29°36' W 090°40'0 0.0
2018-May-18 17:29N 29°36' W 090°40'0 0.0
2018-May-18 17:00N 29°36' W 090°40'0 0.0
2018-May-18 16:30N 29°36' W 090°40'0 0.2
2018-May-18 16:00N 29°36' W 090°40'0 0.2
2018-May-18 15:30N 29°36' W 090°40'0 0.0
2018-May-18 15:00N 29°36' W 090°40'0 0.0
2018-May-18 14:30N 29°36' W 090°40'0 0.0
2018-May-18 14:00N 29°36' W 090°40'0 0.0
2018-May-18 13:30N 29°36' W 090°40'0 0.0
2018-May-18 13:00N 29°36' W 090°40'0 0.0
2018-May-18 12:30N 29°36' W 090°40'0 0.0
2018-May-18 12:00N 29°36' W 090°40'0 0.0
2018-May-18 11:30N 29°36' W 090°40'0 0.0
2018-May-18 11:00N 29°36' W 090°40'0 0.0
2018-May-18 10:30N 29°36' W 090°40'0 0.0
2018-May-18 10:00N 29°36' W 090°40'0 0.0
2018-May-18 09:30N 29°36' W 090°40'0 0.0
2018-May-18 09:00N 29°36' W 090°40'0 0.0
2018-May-18 08:30N 29°36' W 090°40'0 0.0
2018-May-18 08:00N 29°36' W 090°40'0 0.0
2018-May-18 07:30N 29°36' W 090°40'0 0.0
2018-May-18 07:00N 29°36' W 090°40'0 0.0
2018-May-18 06:30N 29°36' W 090°40'0 0.0
2018-May-18 05:59N 29°36' W 090°40'0 0.0
2018-May-18 05:30N 29°36' W 090°40'0 0.0
2018-May-18 05:00N 29°36' W 090°40'0 0.0
2018-May-18 04:30N 29°36' W 090°40'0 0.0
2018-May-18 04:00N 29°36' W 090°40'0 0.0
2018-May-18 03:28N 29°36' W 090°40'0 0.0
2018-May-18 02:59N 29°36' W 090°40'1 1.8
2018-May-18 02:28N 29°36' W 090°41'3 6.8
2018-May-18 02:00N 29°34' W 090°43'4 8.5
2018-May-18 01:30N 29°32' W 090°48'2 0.1
2018-May-16 07:11N 29°32' W 090°50'1 8.3
2018-May-16 07:00N 29°32' W 090°49'3 6.7
2018-May-16 06:30N 29°33' W 090°45'2 4.3
2018-May-16 06:00N 29°35' W 090°43'2 4.9
2018-May-16 05:30N 29°37' W 090°42'1 2.5
2018-May-16 05:00N 29°36' W 090°40'0 0.0
2018-May-16 04:27N 29°36' W 090°40'0 0.0
2018-May-16 04:00N 29°36' W 090°40'0 0.0
2018-May-16 03:29N 29°36' W 090°40'0 0.0
2018-May-16 03:00N 29°36' W 090°40'0 0.0
2018-May-16 02:30N 29°36' W 090°40'0 0.0
2018-May-16 01:59N 29°36' W 090°40'0 0.0
2018-May-16 01:30N 29°36' W 090°40'0 0.0
2018-May-16 01:00N 29°36' W 090°40'0 0.0
2018-May-16 00:30N 29°36' W 090°40'0 0.0
2018-May-16 00:00N 29°36' W 090°40'0 0.0
2018-May-15 23:30N 29°36' W 090°40'0 0.0
2018-May-15 23:00N 29°36' W 090°40'0 0.0
2018-May-15 22:30N 29°36' W 090°40'0 0.0
2018-May-15 22:00N 29°36' W 090°40'0 0.0
2018-May-15 21:30N 29°36' W 090°40'0 0.0
2018-May-15 20:50N 29°36' W 090°40'0 0.0
2018-May-15 20:27N 29°36' W 090°40'0 0.0
2018-May-15 20:00N 29°36' W 090°40'0 0.0
2018-May-15 19:29N 29°36' W 090°40'0 0.0
2018-May-15 19:00N 29°36' W 090°40'0 0.0
2018-May-15 18:30N 29°36' W 090°40'0 0.0
2018-May-15 18:00N 29°36' W 090°40'0 0.0
2018-May-15 17:30N 29°36' W 090°40'0 0.0
2018-May-15 17:00N 29°36' W 090°40'0 0.0
2018-May-15 16:30N 29°36' W 090°40'0 0.0
2018-May-15 16:00N 29°36' W 090°40'0 0.0
2018-May-15 15:30N 29°36' W 090°40'0 0.0
2018-May-15 15:00N 29°36' W 090°40'0 0.0
2018-May-15 14:30N 29°36' W 090°40'0 0.0
2018-May-15 14:00N 29°36' W 090°40'0 0.0
2018-May-15 13:30N 29°36' W 090°40'0 0.0
2018-May-15 13:00N 29°36' W 090°40'0 0.0
2018-May-15 12:30N 29°36' W 090°40'0 0.0
2018-May-15 12:00N 29°36' W 090°40'0 0.0
2018-May-15 11:30N 29°36' W 090°40'0 0.0
2018-May-15 11:00N 29°36' W 090°40'0 0.0
2018-May-15 10:30N 29°36' W 090°40'0 0.0
2018-May-15 10:00N 29°36' W 090°40'0 0.0
2018-May-15 09:30N 29°36' W 090°40'0 0.0
2018-May-15 09:00N 29°36' W 090°40'0 0.0
2018-May-15 08:30N 29°36' W 090°40'0 0.0
2018-May-15 08:00N 29°36' W 090°40'0 0.0
2018-May-15 07:30N 29°36' W 090°40'0 0.0
2018-May-15 07:00N 29°36' W 090°40'0 0.0
2018-May-15 06:30N 29°36' W 090°40'0 0.0
2018-May-15 06:00N 29°36' W 090°40'0 0.0
2018-May-15 05:30N 29°36' W 090°40'0 0.0
2018-May-15 05:00N 29°36' W 090°40'0 0.0
2018-May-15 04:30N 29°36' W 090°40'0 0.0
2018-May-15 04:00N 29°36' W 090°40'0 0.0
2018-May-15 03:30N 29°36' W 090°40'0 0.0
2018-May-15 03:00N 29°36' W 090°40'0 0.0
2018-May-15 02:30N 29°36' W 090°40'0 0.0
2018-May-15 02:00N 29°36' W 090°40'0 0.0
2018-May-15 01:30N 29°36' W 090°40'0 0.0
2018-May-15 01:00N 29°36' W 090°40'0 0.0
2018-May-15 00:30N 29°36' W 090°40'0 0.0
2018-May-15 00:00N 29°36' W 090°40'0 0.0
2018-May-14 23:30N 29°36' W 090°40'0 0.0
2018-May-14 22:57N 29°36' W 090°40'0 0.0
2018-May-14 22:05N 29°36' W 090°40'0 0.0
2018-May-14 21:38N 29°36' W 090°40'0 0.1
2018-May-14 21:30N 29°36' W 090°40'0 0.0
2018-May-14 21:00N 29°36' W 090°40'0 0.0
2018-May-14 20:30N 29°36' W 090°40'0 0.0
2018-May-14 20:00N 29°36' W 090°40'0 0.0
2018-May-14 19:30N 29°36' W 090°40'0 0.0
2018-May-14 19:00N 29°36' W 090°40'0 0.0
2018-May-14 18:30N 29°36' W 090°40'0 0.0
2018-May-14 18:00N 29°36' W 090°40'0 0.0
2018-May-14 17:30N 29°36' W 090°40'  
Track history (hours):
 
Tides and Currents Weather Stations Pressure Air Temp Water Temp Dewpoint Dewpoint Depression Visibility Wind Speed Wind Dir Waves Ship Positions

Delta Ruler

Owner: Crosby Marine Transportation, Golden Meadow, LA. More information available from US FCC via Universal Licensing System and Coast Guard Vessel Documentation Center.

Last reported at 2018-May-24 17:17 UTC. Time now 2018-May-25 22:37 UTC.
Position N 29°50' W 090°14'.

Length 22 m; draft 2.5 m.

Type: Tug. MMSI: 367498910.

Date/timePositionNaut miles runAvg speedWind from/ knotsBaromVisibWave heightAir tempDewpointWater temp
2018-May-24 17:17N 29°50' W 090°14'  
2018-May-21 18:26N 29°37' W 090°21'  
2018-May-19 01:02N 29°34' W 090°32'1 6.0
2018-May-19 00:50N 29°34' W 090°33'2 6.0
2018-May-19 00:30N 29°35' W 090°35'2 4.2
2018-May-19 00:00N 29°35' W 090°38'2 4.1
2018-May-18 23:28N 29°36' W 090°40'0 0.1
2018-May-18 23:00N 29°36' W 090°40'0 0.0
2018-May-18 22:30N 29°36' W 090°40'1 2.8
2018-May-18 22:00N 29°36' W 090°41'2 4.3
2018-May-18 21:30N 29°35' W 090°43'2 4.6
2018-May-18 21:00N 29°33' W 090°42'1 2.7
2018-May-18 20:30N 29°34' W 090°43'3 5.4
2018-May-18 20:00N 29°37' W 090°42'2 3.9
2018-May-18 19:30N 29°36' W 090°40'0 0.0
2018-May-18 19:00N 29°36' W 090°40'0 0.0
2018-May-18 18:30N 29°36' W 090°40'0 0.0
2018-May-18 18:00N 29°36' W 090°40'0 0.0
2018-May-18 17:29N 29°36' W 090°40'0 0.0
2018-May-18 17:00N 29°36' W 090°40'0 0.0
2018-May-18 16:30N 29°36' W 090°40'0 0.2
2018-May-18 16:00N 29°36' W 090°40'0 0.2
2018-May-18 15:30N 29°36' W 090°40'0 0.0
2018-May-18 15:00N 29°36' W 090°40'0 0.0
2018-May-18 14:30N 29°36' W 090°40'0 0.0
2018-May-18 14:00N 29°36' W 090°40'0 0.0
2018-May-18 13:30N 29°36' W 090°40'0 0.0
2018-May-18 13:00N 29°36' W 090°40'0 0.0
2018-May-18 12:30N 29°36' W 090°40'0 0.0
2018-May-18 12:00N 29°36' W 090°40'0 0.0
2018-May-18 11:30N 29°36' W 090°40'0 0.0
2018-May-18 11:00N 29°36' W 090°40'0 0.0
2018-May-18 10:30N 29°36' W 090°40'0 0.0
2018-May-18 10:00N 29°36' W 090°40'0 0.0
2018-May-18 09:30N 29°36' W 090°40'0 0.0
2018-May-18 09:00N 29°36' W 090°40'0 0.0
2018-May-18 08:30N 29°36' W 090°40'0 0.0
2018-May-18 08:00N 29°36' W 090°40'0 0.0
2018-May-18 07:30N 29°36' W 090°40'0 0.0
2018-May-18 07:00N 29°36' W 090°40'0 0.0
2018-May-18 06:30N 29°36' W 090°40'0 0.0
2018-May-18 05:59N 29°36' W 090°40'0 0.0
2018-May-18 05:30N 29°36' W 090°40'0 0.0
2018-May-18 05:00N 29°36' W 090°40'0 0.0
2018-May-18 04:30N 29°36' W 090°40'0 0.0
2018-May-18 04:00N 29°36' W 090°40'0 0.0
2018-May-18 03:28N 29°36' W 090°40'0 0.0
2018-May-18 02:59N 29°36' W 090°40'1 1.8
2018-May-18 02:28N 29°36' W 090°41'3 6.8
2018-May-18 02:00N 29°34' W 090°43'4 8.5
2018-May-18 01:30N 29°32' W 090°48'2 0.1
2018-May-16 07:11N 29°32' W 090°50'1 8.3
2018-May-16 07:00N 29°32' W 090°49'3 6.7
2018-May-16 06:30N 29°33' W 090°45'2 4.3
2018-May-16 06:00N 29°35' W 090°43'2 4.9
2018-May-16 05:30N 29°37' W 090°42'1 2.5
2018-May-16 05:00N 29°36' W 090°40'0 0.0
2018-May-16 04:27N 29°36' W 090°40'0 0.0
2018-May-16 04:00N 29°36' W 090°40'0 0.0
2018-May-16 03:29N 29°36' W 090°40'0 0.0
2018-May-16 03:00N 29°36' W 090°40'0 0.0
2018-May-16 02:30N 29°36' W 090°40'0 0.0
2018-May-16 01:59N 29°36' W 090°40'0 0.0
2018-May-16 01:30N 29°36' W 090°40'0 0.0
2018-May-16 01:00N 29°36' W 090°40'0 0.0
2018-May-16 00:30N 29°36' W 090°40'0 0.0
2018-May-16 00:00N 29°36' W 090°40'0 0.0
2018-May-15 23:30N 29°36' W 090°40'0 0.0
2018-May-15 23:00N 29°36' W 090°40'0 0.0
2018-May-15 22:30N 29°36' W 090°40'0 0.0
2018-May-15 22:00N 29°36' W 090°40'0 0.0
2018-May-15 21:30N 29°36' W 090°40'0 0.0
2018-May-15 20:50N 29°36' W 090°40'0 0.0
2018-May-15 20:27N 29°36' W 090°40'0 0.0
2018-May-15 20:00N 29°36' W 090°40'0 0.0
2018-May-15 19:29N 29°36' W 090°40'0 0.0
2018-May-15 19:00N 29°36' W 090°40'0 0.0
2018-May-15 18:30N 29°36' W 090°40'0 0.0
2018-May-15 18:00N 29°36' W 090°40'0 0.0
2018-May-15 17:30N 29°36' W 090°40'0 0.0
2018-May-15 17:00N 29°36' W 090°40'0 0.0
2018-May-15 16:30N 29°36' W 090°40'0 0.0
2018-May-15 16:00N 29°36' W 090°40'0 0.0
2018-May-15 15:30N 29°36' W 090°40'0 0.0
2018-May-15 15:00N 29°36' W 090°40'0 0.0
2018-May-15 14:30N 29°36' W 090°40'0 0.0
2018-May-15 14:00N 29°36' W 090°40'0 0.0
2018-May-15 13:30N 29°36' W 090°40'0 0.0
2018-May-15 13:00N 29°36' W 090°40'0 0.0
2018-May-15 12:30N 29°36' W 090°40'0 0.0
2018-May-15 12:00N 29°36' W 090°40'0 0.0
2018-May-15 11:30N 29°36' W 090°40'0 0.0
2018-May-15 11:00N 29°36' W 090°40'0 0.0
2018-May-15 10:30N 29°36' W 090°40'0 0.0
2018-May-15 10:00N 29°36' W 090°40'0 0.0
2018-May-15 09:30N 29°36' W 090°40'0 0.0
2018-May-15 09:00N 29°36' W 090°40'0 0.0
2018-May-15 08:30N 29°36' W 090°40'0 0.0
2018-May-15 08:00N 29°36' W 090°40'0 0.0
2018-May-15 07:30N 29°36' W 090°40'0 0.0
2018-May-15 07:00N 29°36' W 090°40'0 0.0
2018-May-15 06:30N 29°36' W 090°40'0 0.0
2018-May-15 06:00N 29°36' W 090°40'0 0.0
2018-May-15 05:30N 29°36' W 090°40'0 0.0
2018-May-15 05:00N 29°36' W 090°40'0 0.0
2018-May-15 04:30N 29°36' W 090°40'0 0.0
2018-May-15 04:00N 29°36' W 090°40'0 0.0
2018-May-15 03:30N 29°36' W 090°40'0 0.0
2018-May-15 03:00N 29°36' W 090°40'0 0.0
2018-May-15 02:30N 29°36' W 090°40'0 0.0
2018-May-15 02:00N 29°36' W 090°40'0 0.0
2018-May-15 01:30N 29°36' W 090°40'0 0.0
2018-May-15 01:00N 29°36' W 090°40'0 0.0
2018-May-15 00:30N 29°36' W 090°40'0 0.0
2018-May-15 00:00N 29°36' W 090°40'0 0.0
2018-May-14 23:30N 29°36' W 090°40'0 0.0
2018-May-14 22:57N 29°36' W 090°40'0 0.0
2018-May-14 22:05N 29°36' W 090°40'0 0.0
2018-May-14 21:38N 29°36' W 090°40'0 0.1
2018-May-14 21:30N 29°36' W 090°40'0 0.0
2018-May-14 21:00N 29°36' W 090°40'0 0.0
2018-May-14 20:30N 29°36' W 090°40'0 0.0
2018-May-14 20:00N 29°36' W 090°40'0 0.0
2018-May-14 19:30N 29°36' W 090°40'0 0.0
2018-May-14 19:00N 29°36' W 090°40'0 0.0
2018-May-14 18:30N 29°36' W 090°40'0 0.0
2018-May-14 18:00N 29°36' W 090°40'0 0.0
2018-May-14 17:30N 29°36' W 090°40'  

Dump ship's entire track history